Terminal Aerodrome Forecast
Issued by NWS

Home | Current Version | Previous Version | Text Only | Print | Product List | Glossary On
Versions: 1 2 3 4 5 6 7 8 9 10 11 12 13 14 15 16 17 18 19 20 21 22 23 24 25 26 27 28 29 30
546
FTUS41 KRNK 050828 AAA
TAFBCB
TAF AMD
KBCB 050828Z 0508/0606 00000KT P6SM OVC007
      TEMPO 0508/0511 2SM -DZ BR OVC003
     FM051230 29005KT P6SM OVC018
     FM051500 31009G17KT P6SM SCT025 BKN250
     FM052200 00000KT P6SM SCT130 OVC250=

USA.gov is the U.S. government's official web portal to all federal, state and local government web resources and services.